»·PEaware :: N4269T 0O2-1L1

N4269T :: 0O2-1L1

FLIGHT INFORMATION

Flight Status: Arrived
Operator: Privately registered:
United States
More flights under this callsign
Pilot: Chuck O. (4337)
Aircraft: Unknown
(B60T)
More flights by this aircraft type
Origin: 0O2 Baker
United States
Destination: 1L1 Lincoln Co
United States
More flights between these airports :: More routes between these airports
Route: CLARR V394 MMM
File this flight plan on PilotEdge
Remarks: Alphabet 27 Baker to Lincoln Cty
Altitude:
(Current/Filed)
11,000ft
Speed:
(Current/Filed)
220kts
Departed: 16-Mar-17 10:33 AM
Arrived: 16-Mar-17 11:27 AM
Distance/Time
Traveled:
170nm/0:54
Distance/Time
To Go:
Arrived

Flight Plot

Page will automatically refresh every two minutes.


Map Options




Map Legend


Flown Route
Filed Route
Departure Airport
Arrival Airport
Navaid (VOR, NDB)
Fix

Horizontal Profiles

Position Reports

Time Latitude Longitude Heading Altitude Ground
Speed
16-Mar-17 10:24 35.287141 -116.081090 256 925ft 0kts
16-Mar-17 10:25 35.287140 -116.081092 256 925ft 0kts
16-Mar-17 10:26 35.287140 -116.081095 256 925ft 0kts
16-Mar-17 10:27 35.287139 -116.081097 256 925ft 0kts
16-Mar-17 10:28 35.287139 -116.081099 256 925ft 0kts
16-Mar-17 10:29 35.287139 -116.081101 256 925ft 0kts
16-Mar-17 10:30 35.287138 -116.081104 256 925ft 0kts
16-Mar-17 10:31 35.287138 -116.081106 256 925ft 0kts
16-Mar-17 10:32 35.287710 -116.081799 341 925ft 12kts
16-Mar-17 10:33 35.290338 -116.082668 260 925ft 1kts
16-Mar-17 10:34 35.275266 -116.077890 169 1533ft 119kts
16-Mar-17 10:35 35.248241 -116.045869 92 3304ft 179kts
16-Mar-17 10:36 35.285357 -116.005595 38 4996ft 191kts
16-Mar-17 10:37 35.326316 -115.966471 34 6786ft 185kts
16-Mar-17 10:38 35.368808 -115.931531 34 8693ft 188kts
16-Mar-17 10:39 35.413378 -115.895064 33 10700ft 195kts
16-Mar-17 10:40 35.464537 -115.853184 33 10995ft 236kts
16-Mar-17 10:41 35.519707 -115.807943 33 10993ft 235kts
16-Mar-17 10:42 35.573994 -115.763364 33 10994ft 234kts
16-Mar-17 10:43 35.627838 -115.719077 33 10998ft 233kts
16-Mar-17 10:44 35.681161 -115.673319 44 10993ft 234kts
16-Mar-17 10:45 35.726051 -115.615383 45 11000ft 233kts
16-Mar-17 10:46 35.770990 -115.557726 45 10998ft 233kts
16-Mar-17 10:47 35.816113 -115.499809 45 10998ft 234kts
16-Mar-17 10:48 35.861008 -115.442116 45 11038ft 233kts
16-Mar-17 10:49 35.903965 -115.386827 46 11035ft 235kts
16-Mar-17 10:50 35.949292 -115.328389 46 11039ft 235kts
16-Mar-17 10:51 35.993585 -115.271193 46 11032ft 235kts
16-Mar-17 10:52 36.039247 -115.212116 45 11018ft 240kts
16-Mar-17 10:53 36.085603 -115.152073 44 10994ft 243kts
16-Mar-17 10:54 36.132829 -115.092524 44 11001ft 242kts
16-Mar-17 10:55 36.179942 -115.032907 44 11003ft 241kts
16-Mar-17 10:56 36.226957 -114.973261 44 10999ft 242kts
16-Mar-17 10:57 36.273935 -114.913560 44 11001ft 242kts
16-Mar-17 10:58 36.320819 -114.853871 44 11005ft 241kts
16-Mar-17 10:59 36.367797 -114.793951 45 11004ft 242kts
16-Mar-17 11:00 36.414895 -114.733779 45 11007ft 242kts
16-Mar-17 11:01 36.461619 -114.673962 45 11013ft 241kts
16-Mar-17 11:02 36.508408 -114.613910 45 11014ft 241kts
16-Mar-17 11:03 36.554980 -114.554057 45 11029ft 242kts
16-Mar-17 11:04 36.601800 -114.493782 45 11030ft 241kts
16-Mar-17 11:05 36.648826 -114.433129 45 10961ft 242kts
16-Mar-17 11:06 36.695571 -114.372723 45 10966ft 241kts
16-Mar-17 11:07 36.742113 -114.312472 45 10972ft 241kts
16-Mar-17 11:08 36.799681 -114.280001 350 10982ft 235kts
16-Mar-17 11:09 36.864769 -114.290378 351 10981ft 235kts
16-Mar-17 11:10 36.929630 -114.299548 351 10983ft 234kts
16-Mar-17 11:11 36.994779 -114.308615 351 10987ft 235kts
16-Mar-17 11:12 37.059637 -114.317619 351 10994ft 234kts
16-Mar-17 11:13 37.124400 -114.326642 351 10987ft 234kts
16-Mar-17 11:14 37.189677 -114.335746 351 10986ft 235kts
16-Mar-17 11:15 37.254465 -114.344804 351 10990ft 234kts
16-Mar-17 11:16 37.319277 -114.353888 351 10991ft 234kts
16-Mar-17 11:17 37.383919 -114.362955 351 10994ft 234kts
16-Mar-17 11:18 37.448562 -114.372030 351 10996ft 234kts
16-Mar-17 11:19 37.512875 -114.381070 350 10995ft 226kts
16-Mar-17 11:20 37.575380 -114.389879 351 9848ft 214kts
16-Mar-17 11:21 37.632766 -114.397998 351 8553ft 203kts
16-Mar-17 11:22 37.688725 -114.405913 352 7261ft 201kts
16-Mar-17 11:23 37.734856 -114.412428 352 6185ft 199kts
16-Mar-17 11:24 37.791927 -114.407710 12 5746ft 126kts
16-Mar-17 11:25 37.823294 -114.399202 346 6168ft 108kts
16-Mar-17 11:26 37.809063 -114.417997 197 5251ft 98kts
16-Mar-17 11:27 37.789272 -114.421446 184 4831ft 45kts
16-Mar-17 11:28 37.789535 -114.421445 3 4831ft 15kts
16-Mar-17 11:29 37.793034 -114.421038 17 4831ft 10kts
16-Mar-17 11:30 37.793113 -114.420359 88 4831ft 0kts
16-Mar-17 11:31 37.793253 -114.419830 5 4831ft 0kts
16-Mar-17 11:32 37.793253 -114.419830 5 4831ft 0kts
16-Mar-17 11:33 37.793253 -114.419830 5 4831ft 0kts
16-Mar-17 11:34 37.793253 -114.419830 5 4831ft 0kts
16-Mar-17 11:35 37.793253 -114.419830 5 4831ft 0kts
16-Mar-17 11:36 37.793253 -114.419830 5 4831ft 0kts
16-Mar-17 11:37 37.793253 -114.419830 5 4831ft 0kts

Navigation Log

Ident Type
Flight plan parsing failed, navigation log unavailable